createdAt,value
2023-03-29T00:01:35.850Z,60.73
2023-03-29T00:04:06.578Z,60.97
2023-03-29T00:06:33.614Z,61.19
2023-03-29T00:09:01.919Z,61.30
2023-03-29T00:11:28.707Z,61.18
2023-03-29T00:13:55.483Z,61.37
2023-03-29T00:16:22.279Z,61.47
2023-03-29T00:18:48.841Z,61.53
2023-03-29T00:21:15.501Z,61.57
2023-03-29T00:23:42.089Z,61.97
2023-03-29T00:26:08.786Z,61.61
2023-03-29T00:28:35.663Z,61.34
2023-03-29T00:31:10.143Z,61.18
2023-03-29T00:33:36.861Z,60.65
2023-03-29T00:36:04.550Z,60.36
2023-03-29T00:38:31.838Z,60.55
2023-03-29T00:40:58.693Z,60.88
2023-03-29T00:43:25.935Z,61.40
2023-03-29T00:45:53.036Z,61.50
2023-03-29T00:48:22.029Z,61.21
2023-03-29T00:51:01.830Z,61.37
2023-03-29T00:53:33.476Z,61.18
2023-03-29T00:56:11.865Z,61.88
2023-03-29T00:58:43.243Z,61.82
2023-03-29T01:01:19.345Z,61.50
2023-03-29T01:03:54.631Z,61.34
2023-03-29T01:06:24.988Z,61.00
2023-03-29T01:08:55.280Z,61.25
2023-03-29T01:11:28.376Z,61.50
2023-03-29T01:14:05.867Z,61.76
2023-03-29T01:16:36.223Z,61.81
2023-03-29T01:19:04.293Z,62.51
2023-03-29T01:21:33.693Z,62.74
2023-03-29T01:24:07.217Z,63.08
2023-03-29T01:26:47.616Z,63.10
2023-03-29T01:29:20.048Z,63.40
2023-03-29T01:31:50.688Z,62.97
2023-03-29T01:34:22.897Z,62.68
2023-03-29T01:36:54.813Z,62.26
2023-03-29T01:39:22.117Z,61.63
2023-03-29T01:42:11.977Z,61.87
2023-03-29T01:44:44.642Z,62.08
2023-03-29T01:47:29.804Z,62.18
2023-03-29T01:50:08.693Z,62.72
2023-03-29T01:52:37.593Z,62.91
2023-03-29T01:55:08.864Z,63.24
2023-03-29T01:57:37.213Z,63.27
2023-03-29T02:00:08.282Z,63.58
2023-03-29T02:02:41.730Z,63.79
2023-03-29T02:05:10.101Z,64.24
2023-03-29T02:07:38.386Z,64.30
2023-03-29T02:10:06.642Z,64.64
2023-03-29T02:12:33.479Z,65.06
2023-03-29T02:15:01.816Z,65.17
2023-03-29T02:17:28.505Z,65.14
2023-03-29T02:19:59.420Z,64.90
2023-03-29T02:22:31.764Z,64.56
2023-03-29T02:25:01.867Z,64.86
2023-03-29T02:27:29.161Z,64.69
2023-03-29T02:29:57.576Z,64.78
2023-03-29T02:32:34.297Z,64.88
2023-03-29T02:35:14.257Z,65.05
2023-03-29T02:37:43.323Z,65.29
2023-03-29T02:40:12.886Z,65.17
2023-03-29T02:42:44.697Z,65.44
2023-03-29T02:45:12.964Z,65.43
2023-03-29T02:47:43.870Z,65.46
2023-03-29T02:50:10.636Z,65.09
2023-03-29T02:52:40.291Z,64.96
2023-03-29T02:55:09.801Z,65.19
2023-03-29T02:57:38.458Z,65.75
2023-03-29T03:00:09.583Z,65.94
2023-03-29T03:02:37.819Z,66.40
2023-03-29T03:05:06.506Z,66.89
2023-03-29T03:07:34.098Z,66.71
2023-03-29T03:10:01.001Z,66.81
2023-03-29T03:12:27.806Z,66.96
2023-03-29T03:14:54.709Z,66.99
2023-03-29T03:17:23.149Z,66.20
2023-03-29T03:19:50.179Z,66.69
2023-03-29T03:22:16.782Z,67.07
2023-03-29T03:24:43.425Z,67.01
2023-03-29T03:27:11.103Z,67.26
2023-03-29T03:29:38.702Z,67.22
2023-03-29T03:32:17.548Z,67.02
2023-03-29T03:35:13.751Z,67.28
2023-03-29T03:37:40.907Z,67.19
2023-03-29T03:40:09.386Z,67.42
2023-03-29T03:42:35.954Z,67.75
2023-03-29T03:45:02.860Z,67.77
2023-03-29T03:47:39.013Z,67.73
2023-03-29T03:50:24.483Z,67.36
2023-03-29T03:52:52.015Z,67.77
2023-03-29T03:55:19.460Z,67.97
2023-03-29T03:57:52.638Z,68.07
2023-03-29T04:00:20.601Z,68.00
2023-03-29T04:03:14.131Z,68.59
2023-03-29T04:05:42.010Z,68.89
2023-03-29T04:08:09.354Z,68.89
2023-03-29T04:10:55.263Z,69.07
2023-03-29T04:13:27.613Z,69.17
2023-03-29T04:16:21.076Z,69.36
2023-03-29T04:18:47.915Z,69.53
2023-03-29T04:21:14.772Z,69.68
2023-03-29T04:23:43.051Z,69.88
2023-03-29T04:26:09.961Z,69.65
2023-03-29T04:28:49.069Z,69.66
2023-03-29T04:31:21.143Z,69.71
2023-03-29T04:33:53.494Z,69.74
2023-03-29T04:36:20.612Z,69.52
2023-03-29T04:38:48.987Z,69.62
2023-03-29T04:41:16.316Z,69.50
2023-03-29T04:43:49.045Z,69.19
2023-03-29T04:46:26.577Z,69.25
2023-03-29T04:49:12.703Z,69.27
2023-03-29T04:51:42.380Z,69.61
2023-03-29T04:54:10.271Z,69.20
2023-03-29T04:56:57.198Z,69.05
2023-03-29T04:59:35.864Z,68.26
2023-03-29T05:02:11.021Z,67.02
2023-03-29T05:04:46.853Z,66.26
2023-03-29T05:07:17.679Z,64.50
2023-03-29T05:09:44.846Z,63.61
2023-03-29T05:12:12.453Z,64.14
2023-03-29T05:14:48.824Z,63.78
2023-03-29T05:17:15.908Z,64.33
2023-03-29T05:19:43.571Z,63.74
2023-03-29T05:22:10.414Z,63.96
2023-03-29T05:24:37.584Z,64.33
2023-03-29T05:27:11.798Z,64.17
2023-03-29T05:29:39.388Z,64.19
2023-03-29T05:32:21.323Z,64.10
2023-03-29T05:34:48.020Z,63.72
2023-03-29T05:37:15.382Z,63.94
2023-03-29T05:39:49.824Z,63.65
2023-03-29T05:42:22.478Z,63.55
2023-03-29T05:44:54.708Z,63.96
2023-03-29T05:47:21.414Z,65.64
2023-03-29T05:49:48.091Z,66.25
2023-03-29T05:52:20.253Z,66.20
2023-03-29T05:54:46.877Z,66.22
2023-03-29T05:57:14.979Z,66.42
2023-03-29T05:59:42.356Z,65.37
2023-03-29T06:02:10.841Z,64.72
2023-03-29T06:04:42.263Z,64.67
2023-03-29T06:07:29.209Z,63.03
2023-03-29T06:10:14.649Z,64.30
2023-03-29T06:12:46.999Z,63.49
2023-03-29T06:15:15.962Z,63.30
2023-03-29T06:17:48.607Z,62.15
2023-03-29T06:20:16.116Z,61.20
2023-03-29T06:22:48.400Z,59.54
2023-03-29T06:25:15.681Z,59.25
2023-03-29T06:27:46.783Z,59.97
2023-03-29T06:30:16.127Z,60.59
2023-03-29T06:32:49.488Z,59.56
2023-03-29T06:35:27.294Z,58.22
2023-03-29T06:38:03.252Z,57.59
2023-03-29T06:40:51.561Z,52.52
2023-03-29T06:43:21.733Z,49.49
2023-03-29T06:46:08.794Z,45.66
2023-03-29T06:48:49.577Z,46.33
2023-03-29T06:51:16.385Z,45.10
2023-03-29T06:53:43.050Z,45.03
2023-03-29T06:56:09.911Z,44.26
2023-03-29T06:58:41.399Z,46.15
2023-03-29T07:01:40.566Z,49.32
2023-03-29T07:04:22.453Z,46.91
2023-03-29T07:07:07.789Z,45.59
2023-03-29T07:09:36.086Z,47.39
2023-03-29T07:12:28.495Z,46.26
2023-03-29T07:14:59.168Z,47.21
2023-03-29T07:17:44.767Z,47.79
2023-03-29T07:20:14.257Z,48.59
2023-03-29T07:22:52.988Z,48.22
2023-03-29T07:25:21.488Z,46.50
2023-03-29T07:27:48.385Z,47.08
2023-03-29T07:30:16.628Z,49.09
2023-03-29T07:32:44.542Z,47.95
2023-03-29T07:35:26.699Z,48.77
2023-03-29T07:37:55.643Z,47.95
2023-03-29T07:40:26.415Z,49.49
2023-03-29T07:42:57.177Z,47.12
2023-03-29T07:45:28.363Z,47.16
2023-03-29T07:48:11.832Z,46.02
2023-03-29T07:50:58.824Z,46.37
2023-03-29T07:53:30.968Z,46.17
2023-03-29T07:56:00.562Z,45.23
2023-03-29T07:58:50.242Z,45.43
2023-03-29T08:01:19.944Z,44.82
2023-03-29T08:04:13.399Z,44.95
2023-03-29T08:06:58.912Z,43.41
2023-03-29T08:09:37.490Z,42.11
2023-03-29T08:12:05.287Z,40.74
2023-03-29T08:14:36.711Z,39.68
2023-03-29T08:17:13.206Z,40.14
2023-03-29T08:19:51.434Z,39.18
2023-03-29T08:22:23.947Z,39.37
2023-03-29T08:25:19.156Z,39.08
2023-03-29T08:27:49.575Z,39.77
2023-03-29T08:30:24.763Z,41.05
2023-03-29T08:32:54.945Z,41.35
2023-03-29T08:35:22.581Z,40.07
2023-03-29T08:38:05.458Z,41.79
2023-03-29T08:40:33.548Z,41.25
2023-03-29T08:43:39.103Z,40.21
2023-03-29T08:46:20.136Z,40.33
2023-03-29T08:49:00.402Z,41.10
2023-03-29T08:51:30.699Z,41.61
2023-03-29T08:54:30.066Z,40.18
2023-03-29T08:57:15.917Z,40.42
2023-03-29T08:59:48.319Z,39.66
2023-03-29T09:02:17.973Z,39.88
2023-03-29T09:04:52.469Z,38.16
2023-03-29T09:07:32.820Z,38.75
2023-03-29T09:09:59.725Z,38.42
2023-03-29T09:12:32.244Z,37.73
2023-03-29T09:14:58.964Z,36.91
2023-03-29T09:17:26.447Z,37.09
2023-03-29T09:20:08.636Z,36.14
2023-03-29T09:22:54.243Z,36.62
2023-03-29T09:25:25.345Z,36.34
2023-03-29T09:27:59.525Z,37.29
2023-03-29T09:30:42.783Z,37.10
2023-03-29T09:33:23.893Z,38.02
2023-03-29T09:36:08.089Z,37.46
2023-03-29T09:38:39.684Z,36.92
2023-03-29T09:41:13.916Z,37.13
2023-03-29T09:43:42.194Z,37.07
2023-03-29T09:46:33.904Z,36.81
2023-03-29T09:49:01.545Z,36.49
2023-03-29T09:51:30.007Z,36.63
2023-03-29T09:53:57.296Z,36.21
2023-03-29T09:56:50.365Z,36.20
2023-03-29T09:59:20.618Z,36.08
2023-03-29T10:01:47.607Z,36.16
2023-03-29T10:04:16.930Z,36.02
2023-03-29T10:06:50.546Z,36.33
2023-03-29T10:09:22.048Z,35.06
2023-03-29T10:11:53.486Z,34.71
2023-03-29T10:14:42.567Z,35.83
2023-03-29T10:17:25.880Z,35.19
2023-03-29T10:19:55.905Z,35.64
2023-03-29T10:22:27.272Z,35.25
2023-03-29T10:24:55.030Z,34.79
2023-03-29T10:27:27.150Z,35.52
2023-03-29T10:29:54.675Z,35.28
2023-03-29T10:32:33.695Z,35.83
2023-03-29T10:35:16.881Z,35.33
2023-03-29T10:37:44.731Z,35.68
2023-03-29T10:40:22.251Z,36.60
2023-03-29T10:42:50.266Z,35.91
2023-03-29T10:45:35.416Z,35.67
2023-03-29T10:48:03.903Z,34.63
2023-03-29T10:50:34.957Z,35.17
2023-03-29T10:53:03.249Z,35.77
2023-03-29T10:55:37.086Z,36.26
2023-03-29T10:58:23.265Z,35.98
2023-03-29T11:00:56.250Z,35.47
2023-03-29T11:03:33.820Z,35.04
2023-03-29T11:06:11.277Z,34.70
2023-03-29T11:08:47.032Z,35.81
2023-03-29T11:11:21.830Z,34.92
2023-03-29T11:13:58.747Z,36.11
2023-03-29T11:16:42.033Z,36.13
2023-03-29T11:19:26.030Z,36.64
2023-03-29T11:22:04.591Z,36.54
2023-03-29T11:24:46.869Z,37.16
2023-03-29T11:27:27.447Z,36.06
2023-03-29T11:29:54.081Z,36.59
2023-03-29T11:32:29.025Z,36.08
2023-03-29T11:34:55.627Z,37.23
2023-03-29T11:37:22.250Z,37.14
2023-03-29T11:39:51.661Z,37.54
2023-03-29T11:42:23.513Z,37.81
2023-03-29T11:44:54.633Z,37.63
2023-03-29T11:47:23.162Z,38.32
2023-03-29T11:50:06.260Z,38.40
2023-03-29T11:52:45.343Z,38.72
2023-03-29T11:55:14.925Z,38.78
2023-03-29T11:57:53.952Z,38.92
2023-03-29T12:00:21.330Z,40.98
2023-03-29T12:02:48.285Z,39.12
2023-03-29T12:05:20.709Z,39.10
2023-03-29T12:08:06.352Z,39.58
2023-03-29T12:10:53.174Z,39.06
2023-03-29T12:13:25.648Z,38.07
2023-03-29T12:16:06.860Z,39.23
2023-03-29T12:18:38.073Z,39.58
2023-03-29T12:21:08.981Z,38.91
2023-03-29T12:23:35.736Z,39.74
2023-03-29T12:26:16.315Z,39.92
2023-03-29T12:29:04.187Z,39.92
2023-03-29T12:31:37.141Z,40.29
2023-03-29T12:34:22.497Z,40.97
2023-03-29T12:37:21.056Z,41.50
2023-03-29T12:40:18.661Z,42.22
2023-03-29T12:43:05.074Z,42.87
2023-03-29T12:45:53.161Z,44.07
2023-03-29T12:48:27.303Z,43.82
2023-03-29T12:51:01.795Z,45.25
2023-03-29T12:53:33.277Z,45.60
2023-03-29T12:56:02.914Z,45.24
2023-03-29T12:58:39.239Z,46.55
2023-03-29T13:01:24.403Z,46.26
2023-03-29T13:03:52.788Z,45.83
2023-03-29T13:06:28.991Z,45.92
2023-03-29T13:09:18.673Z,46.66
2023-03-29T13:11:51.657Z,46.51
2023-03-29T13:14:20.244Z,46.41
2023-03-29T13:16:47.242Z,46.52
2023-03-29T13:19:23.161Z,46.33
2023-03-29T13:21:49.714Z,45.54
2023-03-29T13:24:22.271Z,45.72
2023-03-29T13:26:56.896Z,46.05
2023-03-29T13:29:23.471Z,46.22
2023-03-29T13:31:50.455Z,45.78
2023-03-29T13:34:17.222Z,46.50
2023-03-29T13:37:02.532Z,46.79
2023-03-29T13:39:30.615Z,46.09
2023-03-29T13:42:08.207Z,46.23
2023-03-29T13:44:46.065Z,46.87
2023-03-29T13:47:28.922Z,47.01
2023-03-29T13:50:05.510Z,46.89
2023-03-29T13:52:39.330Z,47.40
2023-03-29T13:55:10.651Z,46.95
2023-03-29T13:57:39.647Z,46.79
2023-03-29T14:00:17.140Z,47.18
2023-03-29T14:02:48.744Z,47.51
2023-03-29T14:05:17.702Z,47.53
2023-03-29T14:07:47.472Z,48.33
2023-03-29T14:10:16.244Z,49.04
2023-03-29T14:12:42.812Z,48.69
2023-03-29T14:15:18.615Z,49.61
2023-03-29T14:17:45.279Z,49.00
2023-03-29T14:20:14.880Z,49.14
2023-03-29T14:22:42.155Z,48.71
2023-03-29T14:25:14.015Z,49.85
2023-03-29T14:27:41.083Z,49.65
2023-03-29T14:30:39.988Z,49.57
2023-03-29T14:33:06.814Z,49.67
2023-03-29T14:35:33.537Z,50.44
2023-03-29T14:38:00.552Z,50.37
2023-03-29T14:40:27.864Z,51.09
2023-03-29T14:42:55.186Z,52.23
2023-03-29T14:45:23.347Z,53.27
2023-03-29T14:47:50.422Z,55.60
2023-03-29T14:50:18.899Z,56.09
2023-03-29T14:52:47.954Z,56.51
2023-03-29T14:55:16.341Z,56.72
2023-03-29T14:57:42.966Z,56.39
2023-03-29T15:00:48.209Z,57.04
2023-03-29T15:03:15.741Z,56.56
2023-03-29T15:05:44.108Z,57.21
2023-03-29T15:08:14.913Z,56.58
2023-03-29T15:10:44.747Z,56.90
2023-03-29T15:13:17.479Z,57.31
2023-03-29T15:15:44.490Z,57.60
2023-03-29T15:18:14.164Z,57.25
2023-03-29T15:20:41.512Z,57.77
2023-03-29T15:23:17.339Z,56.88
2023-03-29T15:25:50.942Z,56.65
2023-03-29T15:28:34.150Z,56.56
2023-03-29T15:31:09.913Z,57.07
2023-03-29T15:33:38.063Z,57.35
2023-03-29T15:36:06.088Z,57.33
2023-03-29T15:38:43.328Z,57.46
2023-03-29T15:41:11.215Z,56.94
2023-03-29T15:43:37.919Z,56.96
2023-03-29T15:46:05.098Z,57.57
2023-03-29T15:48:33.737Z,56.84
2023-03-29T15:51:04.593Z,57.14
2023-03-29T15:53:32.927Z,57.39
2023-03-29T15:56:01.423Z,57.80
2023-03-29T15:58:30.173Z,57.59
2023-03-29T16:00:59.285Z,58.45
2023-03-29T16:03:27.429Z,58.12
2023-03-29T16:05:56.876Z,58.09
2023-03-29T16:08:25.090Z,58.43
2023-03-29T16:10:51.828Z,58.55
2023-03-29T16:13:18.462Z,58.91
2023-03-29T16:15:45.852Z,58.83
2023-03-29T16:18:12.605Z,58.84
2023-03-29T16:20:39.390Z,58.93
2023-03-29T16:23:09.789Z,59.31
2023-03-29T16:25:38.404Z,59.23
2023-03-29T16:28:05.647Z,59.10
2023-03-29T16:30:32.265Z,58.76
2023-03-29T16:32:59.130Z,59.24
2023-03-29T16:35:32.136Z,59.18
2023-03-29T16:37:58.818Z,59.25
2023-03-29T16:40:26.040Z,59.29
2023-03-29T16:42:52.810Z,59.43
2023-03-29T16:45:19.386Z,59.33
2023-03-29T16:47:46.112Z,58.99
2023-03-29T16:50:13.535Z,59.45
2023-03-29T16:52:40.673Z,59.74
2023-03-29T16:55:08.079Z,59.62
2023-03-29T16:57:34.738Z,59.51
2023-03-29T17:00:01.389Z,60.18
2023-03-29T17:02:28.017Z,60.21
2023-03-29T17:04:54.857Z,60.01
2023-03-29T17:07:21.517Z,60.79
2023-03-29T17:09:48.275Z,60.71
2023-03-29T17:12:14.842Z,60.66
2023-03-29T17:14:41.972Z,60.93
2023-03-29T17:17:08.644Z,61.60
2023-03-29T17:19:35.171Z,61.61
2023-03-29T17:22:01.810Z,62.37
2023-03-29T17:24:28.353Z,61.91
2023-03-29T17:26:54.981Z,62.34
2023-03-29T17:29:21.541Z,62.57
2023-03-29T17:31:48.321Z,63.14
2023-03-29T17:34:15.330Z,62.86
2023-03-29T17:36:41.943Z,63.58
2023-03-29T17:39:09.618Z,63.26
2023-03-29T17:41:36.365Z,62.95
2023-03-29T17:44:03.328Z,63.14
2023-03-29T17:46:30.261Z,63.48
2023-03-29T17:48:59.086Z,63.35
2023-03-29T17:51:26.904Z,63.96
2023-03-29T17:53:54.712Z,63.29
2023-03-29T17:56:21.809Z,63.40
2023-03-29T17:58:49.179Z,63.69
2023-03-29T18:01:16.788Z,64.04
2023-03-29T18:03:43.462Z,64.33
2023-03-29T18:06:10.148Z,64.49
2023-03-29T18:08:36.693Z,64.85
2023-03-29T18:11:07.257Z,64.66
2023-03-29T18:13:34.041Z,63.68
2023-03-29T18:16:00.998Z,63.78
2023-03-29T18:18:27.814Z,63.59
2023-03-29T18:20:54.394Z,62.96
2023-03-29T18:23:21.367Z,63.03
2023-03-29T18:25:48.207Z,63.40
2023-03-29T18:28:14.750Z,63.47
2023-03-29T18:30:41.395Z,63.07
2023-03-29T18:33:07.936Z,62.55
2023-03-29T18:35:34.807Z,62.49
2023-03-29T18:38:03.188Z,62.63
2023-03-29T18:40:30.354Z,62.13
2023-03-29T18:42:56.948Z,62.05
2023-03-29T18:45:23.680Z,61.81
2023-03-29T18:47:50.697Z,61.09
2023-03-29T18:50:18.100Z,60.72
2023-03-29T18:52:44.680Z,59.61
2023-03-29T18:55:11.485Z,58.84
2023-03-29T18:57:38.195Z,58.92
2023-03-29T19:00:10.595Z,59.02
2023-03-29T19:02:37.880Z,58.81
2023-03-29T19:05:04.781Z,58.91
2023-03-29T19:07:31.530Z,59.01
2023-03-29T19:09:58.116Z,58.32
2023-03-29T19:12:24.673Z,58.28
2023-03-29T19:14:51.353Z,57.60
2023-03-29T19:17:17.950Z,57.16
2023-03-29T19:19:44.488Z,57.37
2023-03-29T19:22:11.046Z,56.61
2023-03-29T19:24:37.655Z,55.98
2023-03-29T19:27:04.477Z,55.90
2023-03-29T19:29:31.064Z,55.93
2023-03-29T19:31:57.795Z,55.81
2023-03-29T19:34:24.641Z,55.60
2023-03-29T19:36:53.476Z,56.07
2023-03-29T19:39:20.781Z,56.51
2023-03-29T19:41:47.638Z,56.80
2023-03-29T19:44:14.281Z,57.00
2023-03-29T19:46:43.576Z,56.77
2023-03-29T19:49:13.678Z,56.67
2023-03-29T19:51:41.320Z,57.06
2023-03-29T19:54:08.027Z,56.22
2023-03-29T19:56:34.902Z,56.40
2023-03-29T19:59:01.573Z,55.87
2023-03-29T20:01:28.208Z,56.11
2023-03-29T20:03:54.848Z,56.22
2023-03-29T20:06:21.759Z,56.03
2023-03-29T20:08:48.382Z,56.27
2023-03-29T20:11:15.691Z,56.16
2023-03-29T20:13:43.394Z,56.24
2023-03-29T20:16:11.543Z,56.73
2023-03-29T20:18:38.349Z,56.82
2023-03-29T20:21:06.281Z,56.16
2023-03-29T20:23:33.169Z,56.26
2023-03-29T20:25:59.802Z,56.03
2023-03-29T20:28:26.392Z,56.35
2023-03-29T20:30:53.313Z,56.99
2023-03-29T20:33:20.777Z,56.88
2023-03-29T20:35:48.076Z,57.99
2023-03-29T20:38:14.901Z,58.72
2023-03-29T20:40:41.996Z,59.50
2023-03-29T20:43:13.545Z,59.84
2023-03-29T20:45:54.038Z,59.28
2023-03-29T20:48:30.462Z,59.07
2023-03-29T20:50:57.805Z,59.14
2023-03-29T20:53:25.441Z,59.20
2023-03-29T20:55:52.123Z,59.94
2023-03-29T20:58:18.674Z,59.73
2023-03-29T21:00:46.786Z,59.74
2023-03-29T21:03:13.614Z,59.71
2023-03-29T21:05:40.227Z,59.70
2023-03-29T21:08:06.788Z,59.63
2023-03-29T21:10:33.457Z,59.70
2023-03-29T21:13:00.418Z,59.75
2023-03-29T21:15:28.768Z,58.34
2023-03-29T21:17:55.924Z,58.50
2023-03-29T21:20:22.597Z,58.81
2023-03-29T21:22:49.137Z,57.51
2023-03-29T21:25:15.929Z,57.80
2023-03-29T21:27:43.035Z,56.72
2023-03-29T21:30:10.286Z,56.72
2023-03-29T21:32:36.951Z,56.54
2023-03-29T21:35:03.664Z,56.61
2023-03-29T21:37:30.432Z,56.49
2023-03-29T21:39:57.006Z,56.68
2023-03-29T21:42:23.540Z,56.48
2023-03-29T21:44:50.288Z,56.71
2023-03-29T21:47:16.928Z,56.88
2023-03-29T21:49:45.803Z,56.69
2023-03-29T21:52:12.413Z,55.91
2023-03-29T21:54:38.984Z,55.71
2023-03-29T21:57:05.697Z,55.49
2023-03-29T21:59:32.483Z,55.39
2023-03-29T22:01:59.118Z,55.16
2023-03-29T22:04:35.868Z,55.32
2023-03-29T22:07:04.396Z,55.26
2023-03-29T22:09:31.934Z,55.16
2023-03-29T22:11:59.870Z,54.88
2023-03-29T22:14:28.560Z,55.02
2023-03-29T22:16:55.414Z,55.07
2023-03-29T22:19:22.097Z,55.13
2023-03-29T22:21:48.853Z,55.07
2023-03-29T22:24:16.383Z,54.74
2023-03-29T22:26:45.043Z,55.19
2023-03-29T22:29:12.003Z,54.49
2023-03-29T22:31:41.721Z,54.35
2023-03-29T22:34:08.486Z,54.49
2023-03-29T22:36:36.385Z,54.40
2023-03-29T22:39:03.536Z,54.20
2023-03-29T22:41:30.626Z,54.27
2023-03-29T22:43:58.223Z,54.80
2023-03-29T22:46:25.441Z,54.23
2023-03-29T22:48:53.593Z,54.37
2023-03-29T22:51:20.767Z,54.03
2023-03-29T22:53:47.634Z,53.88
2023-03-29T22:56:15.536Z,54.64
2023-03-29T22:58:42.304Z,54.08
2023-03-29T23:01:09.127Z,54.31
2023-03-29T23:03:36.098Z,54.78
2023-03-29T23:06:02.655Z,55.21
2023-03-29T23:08:30.307Z,55.28
2023-03-29T23:10:57.070Z,54.89
2023-03-29T23:13:25.969Z,55.02
2023-03-29T23:15:54.148Z,55.54
2023-03-29T23:18:22.410Z,55.35
2023-03-29T23:20:50.502Z,55.47
2023-03-29T23:23:17.911Z,55.28
2023-03-29T23:25:48.630Z,55.77
2023-03-29T23:28:21.569Z,55.29
2023-03-29T23:30:58.669Z,55.45
2023-03-29T23:33:25.992Z,55.06
2023-03-29T23:35:53.495Z,55.50
2023-03-29T23:38:20.505Z,55.63
2023-03-29T23:40:54.244Z,55.50
2023-03-29T23:43:21.881Z,55.61
2023-03-29T23:45:48.512Z,55.76
2023-03-29T23:48:15.057Z,55.85
2023-03-29T23:50:46.263Z,55.56
2023-03-29T23:53:12.892Z,55.88
2023-03-29T23:55:39.549Z,55.87
2023-03-29T23:58:06.164Z,56.21
